Terminal Aerodrome Forecast
Issued by NWS Northern Indiana

Home | Current Version | Previous Version | Text Only | Print | Product List | Glossary On
Versions: 1 2 3 4 5 6 7 8 9 10 11
531
FTUS43 KIWX 211720
TAFFWA
TAF
KFWA 211720Z 2118/2218 36010KT P6SM SCT100 BKN110
     FM220100 31003KT P6SM SKC=

USA.gov is the U.S. government's official web portal to all federal, state and local government web resources and services.